sensor_id;sensor_type;location;lat;lon;timestamp;P1;durP1;ratioP1;P2;durP2;ratioP2
63782;SDS011;49925;52.522;5.732;2023-02-18T00:01:01;46.33;;;8.70;;
63782;SDS011;49925;52.522;5.732;2023-02-18T00:03:29;38.50;;;10.25;;
63782;SDS011;49925;52.522;5.732;2023-02-18T00:05:58;34.35;;;8.35;;
63782;SDS011;49925;52.522;5.732;2023-02-18T00:08:25;33.05;;;8.57;;
63782;SDS011;49925;52.522;5.732;2023-02-18T00:10:52;40.28;;;7.70;;
63782;SDS011;49925;52.522;5.732;2023-02-18T00:13:19;44.17;;;7.78;;
63782;SDS011;49925;52.522;5.732;2023-02-18T00:15:46;41.88;;;8.60;;
63782;SDS011;49925;52.522;5.732;2023-02-18T00:18:13;47.58;;;8.07;;
63782;SDS011;49925;52.522;5.732;2023-02-18T00:20:41;36.88;;;9.43;;
63782;SDS011;49925;52.522;5.732;2023-02-18T00:23:08;40.22;;;8.20;;
63782;SDS011;49925;52.522;5.732;2023-02-18T00:25:35;46.25;;;7.45;;
63782;SDS011;49925;52.522;5.732;2023-02-18T00:28:02;32.90;;;7.68;;
63782;SDS011;49925;52.522;5.732;2023-02-18T00:30:29;38.60;;;7.70;;
63782;SDS011;49925;52.522;5.732;2023-02-18T00:32:56;36.00;;;7.03;;
63782;SDS011;49925;52.522;5.732;2023-02-18T00:35:23;37.15;;;7.00;;
63782;SDS011;49925;52.522;5.732;2023-02-18T00:37:53;38.63;;;7.38;;
63782;SDS011;49925;52.522;5.732;2023-02-18T00:40:21;36.10;;;6.95;;
63782;SDS011;49925;52.522;5.732;2023-02-18T00:42:48;37.70;;;8.38;;
63782;SDS011;49925;52.522;5.732;2023-02-18T00:45:15;43.40;;;7.22;;
63782;SDS011;49925;52.522;5.732;2023-02-18T00:47:42;43.35;;;7.57;;
63782;SDS011;49925;52.522;5.732;2023-02-18T00:50:09;27.95;;;7.45;;
63782;SDS011;49925;52.522;5.732;2023-02-18T00:52:37;35.33;;;8.02;;
63782;SDS011;49925;52.522;5.732;2023-02-18T00:55:04;43.75;;;7.60;;
63782;SDS011;49925;52.522;5.732;2023-02-18T00:57:31;28.95;;;7.43;;
63782;SDS011;49925;52.522;5.732;2023-02-18T00:59:58;53.70;;;9.77;;
63782;SDS011;49925;52.522;5.732;2023-02-18T01:02:25;37.75;;;8.00;;
63782;SDS011;49925;52.522;5.732;2023-02-18T01:04:52;42.15;;;8.05;;
63782;SDS011;49925;52.522;5.732;2023-02-18T01:07:20;38.50;;;9.38;;
63782;SDS011;49925;52.522;5.732;2023-02-18T01:09:47;46.10;;;7.80;;
63782;SDS011;49925;52.522;5.732;2023-02-18T01:12:14;38.22;;;8.77;;
63782;SDS011;49925;52.522;5.732;2023-02-18T01:14:42;39.00;;;9.05;;
63782;SDS011;49925;52.522;5.732;2023-02-18T01:17:09;31.63;;;8.63;;
63782;SDS011;49925;52.522;5.732;2023-02-18T01:19:36;35.88;;;9.50;;
63782;SDS011;49925;52.522;5.732;2023-02-18T01:22:05;41.50;;;9.52;;
63782;SDS011;49925;52.522;5.732;2023-02-18T01:24:32;47.88;;;10.82;;
63782;SDS011;49925;52.522;5.732;2023-02-18T01:26:59;43.78;;;11.80;;
63782;SDS011;49925;52.522;5.732;2023-02-18T01:29:27;37.00;;;11.50;;
63782;SDS011;49925;52.522;5.732;2023-02-18T01:31:54;65.72;;;12.85;;
63782;SDS011;49925;52.522;5.732;2023-02-18T01:34:22;45.33;;;13.07;;
63782;SDS011;49925;52.522;5.732;2023-02-18T01:36:50;59.65;;;14.75;;
63782;SDS011;49925;52.522;5.732;2023-02-18T01:39:17;58.03;;;14.70;;
63782;SDS011;49925;52.522;5.732;2023-02-18T01:41:44;49.03;;;16.48;;
63782;SDS011;49925;52.522;5.732;2023-02-18T01:44:14;68.43;;;18.10;;
63782;SDS011;49925;52.522;5.732;2023-02-18T01:46:45;78.13;;;20.08;;
63782;SDS011;49925;52.522;5.732;2023-02-18T01:49:14;70.10;;;19.52;;
63782;SDS011;49925;52.522;5.732;2023-02-18T01:52:28;73.13;;;21.40;;
63782;SDS011;49925;52.522;5.732;2023-02-18T01:54:54;70.35;;;21.40;;
63782;SDS011;49925;52.522;5.732;2023-02-18T01:57:24;95.57;;;22.48;;
63782;SDS011;49925;52.522;5.732;2023-02-18T02:00:04;76.40;;;22.38;;
63782;SDS011;49925;52.522;5.732;2023-02-18T02:02:38;92.80;;;22.90;;
63782;SDS011;49925;52.522;5.732;2023-02-18T02:05:10;84.35;;;22.92;;
63782;SDS011;49925;52.522;5.732;2023-02-18T02:07:38;91.93;;;24.77;;
63782;SDS011;49925;52.522;5.732;2023-02-18T02:10:07;75.45;;;22.70;;
63782;SDS011;49925;52.522;5.732;2023-02-18T02:32:26;95.18;;;26.13;;
63782;SDS011;49925;52.522;5.732;2023-02-18T02:35:30;70.82;;;25.33;;
63782;SDS011;49925;52.522;5.732;2023-02-18T02:38:34;89.40;;;28.20;;
63782;SDS011;49925;52.522;5.732;2023-02-18T02:44:20;92.80;;;30.67;;
63782;SDS011;49925;52.522;5.732;2023-02-18T02:47:00;97.10;;;33.05;;
63782;SDS011;49925;52.522;5.732;2023-02-18T02:52:16;103.43;;;32.42;;
63782;SDS011;49925;52.522;5.732;2023-02-18T02:54:55;115.57;;;31.92;;
63782;SDS011;49925;52.522;5.732;2023-02-18T02:59:51;88.72;;;30.58;;
63782;SDS011;49925;52.522;5.732;2023-02-18T03:02:24;101.90;;;33.53;;
63782;SDS011;49925;52.522;5.732;2023-02-18T03:05:54;94.90;;;30.85;;
63782;SDS011;49925;52.522;5.732;2023-02-18T03:08:55;105.63;;;31.08;;
63782;SDS011;49925;52.522;5.732;2023-02-18T03:15:22;94.50;;;31.63;;
63782;SDS011;49925;52.522;5.732;2023-02-18T03:18:16;100.25;;;30.23;;
63782;SDS011;49925;52.522;5.732;2023-02-18T03:24:19;104.07;;;31.27;;
63782;SDS011;49925;52.522;5.732;2023-02-18T03:27:14;123.28;;;31.38;;
63782;SDS011;49925;52.522;5.732;2023-02-18T03:32:51;139.63;;;34.88;;
63782;SDS011;49925;52.522;5.732;2023-02-18T03:35:25;130.73;;;37.17;;
63782;SDS011;49925;52.522;5.732;2023-02-18T03:37:55;137.65;;;38.22;;
63782;SDS011;49925;52.522;5.732;2023-02-18T03:40:28;170.23;;;41.63;;
63782;SDS011;49925;52.522;5.732;2023-02-18T03:42:57;157.88;;;40.33;;
63782;SDS011;49925;52.522;5.732;2023-02-18T03:45:24;182.45;;;41.72;;
63782;SDS011;49925;52.522;5.732;2023-02-18T03:47:55;180.82;;;41.67;;
63782;SDS011;49925;52.522;5.732;2023-02-18T03:50:22;181.02;;;41.72;;
63782;SDS011;49925;52.522;5.732;2023-02-18T03:52:49;164.68;;;43.05;;
63782;SDS011;49925;52.522;5.732;2023-02-18T03:55:16;196.27;;;42.53;;
63782;SDS011;49925;52.522;5.732;2023-02-18T03:57:43;170.30;;;41.55;;
63782;SDS011;49925;52.522;5.732;2023-02-18T04:00:11;176.13;;;41.88;;
63782;SDS011;49925;52.522;5.732;2023-02-18T04:02:39;156.23;;;40.65;;
63782;SDS011;49925;52.522;5.732;2023-02-18T04:05:07;159.25;;;39.92;;
63782;SDS011;49925;52.522;5.732;2023-02-18T04:07:34;148.13;;;37.78;;
63782;SDS011;49925;52.522;5.732;2023-02-18T04:10:02;165.70;;;40.63;;
63782;SDS011;49925;52.522;5.732;2023-02-18T04:12:31;172.65;;;39.97;;
63782;SDS011;49925;52.522;5.732;2023-02-18T04:14:58;178.57;;;39.13;;
63782;SDS011;49925;52.522;5.732;2023-02-18T04:17:25;155.55;;;38.60;;
63782;SDS011;49925;52.522;5.732;2023-02-18T04:19:52;167.20;;;38.42;;
63782;SDS011;49925;52.522;5.732;2023-02-18T04:22:19;176.05;;;37.55;;
63782;SDS011;49925;52.522;5.732;2023-02-18T04:24:46;168.85;;;37.67;;
63782;SDS011;49925;52.522;5.732;2023-02-18T04:27:13;166.70;;;37.15;;
63782;SDS011;49925;52.522;5.732;2023-02-18T04:29:41;164.93;;;37.80;;
63782;SDS011;49925;52.522;5.732;2023-02-18T04:32:08;160.70;;;37.42;;
63782;SDS011;49925;52.522;5.732;2023-02-18T04:34:35;160.23;;;36.15;;
63782;SDS011;49925;52.522;5.732;2023-02-18T04:37:02;149.05;;;35.88;;
63782;SDS011;49925;52.522;5.732;2023-02-18T04:39:29;139.45;;;34.15;;
63782;SDS011;49925;52.522;5.732;2023-02-18T04:41:56;130.05;;;32.97;;
63782;SDS011;49925;52.522;5.732;2023-02-18T04:44:23;132.48;;;32.25;;
63782;SDS011;49925;52.522;5.732;2023-02-18T06:04:57;40.90;;;14.73;;
63782;SDS011;49925;52.522;5.732;2023-02-18T06:07:24;32.50;;;14.60;;
63782;SDS011;49925;52.522;5.732;2023-02-18T06:09:51;45.47;;;16.83;;
63782;SDS011;49925;52.522;5.732;2023-02-18T06:12:19;50.03;;;16.85;;
63782;SDS011;49925;52.522;5.732;2023-02-18T06:14:46;55.05;;;18.63;;
63782;SDS011;49925;52.522;5.732;2023-02-18T06:17:13;64.22;;;17.77;;
63782;SDS011;49925;52.522;5.732;2023-02-18T06:19:40;48.80;;;16.50;;
63782;SDS011;49925;52.522;5.732;2023-02-18T06:22:07;42.63;;;16.75;;
63782;SDS011;49925;52.522;5.732;2023-02-18T06:24:34;44.63;;;14.85;;
63782;SDS011;49925;52.522;5.732;2023-02-18T06:27:02;41.80;;;15.10;;
63782;SDS011;49925;52.522;5.732;2023-02-18T06:29:29;41.88;;;14.68;;
63782;SDS011;49925;52.522;5.732;2023-02-18T06:31:57;43.20;;;13.18;;
63782;SDS011;49925;52.522;5.732;2023-02-18T06:34:25;50.28;;;14.55;;
63782;SDS011;49925;52.522;5.732;2023-02-18T06:36:55;47.67;;;13.00;;
63782;SDS011;49925;52.522;5.732;2023-02-18T06:39:26;46.92;;;13.27;;
63782;SDS011;49925;52.522;5.732;2023-02-18T06:41:54;36.20;;;11.73;;
63782;SDS011;49925;52.522;5.732;2023-02-18T06:44:21;43.45;;;11.95;;
63782;SDS011;49925;52.522;5.732;2023-02-18T06:46:48;28.88;;;11.30;;
63782;SDS011;49925;52.522;5.732;2023-02-18T06:49:15;33.17;;;11.30;;
63782;SDS011;49925;52.522;5.732;2023-02-18T06:51:42;52.30;;;11.15;;
63782;SDS011;49925;52.522;5.732;2023-02-18T06:54:12;44.58;;;11.15;;
63782;SDS011;49925;52.522;5.732;2023-02-18T06:56:39;34.13;;;10.52;;
63782;SDS011;49925;52.522;5.732;2023-02-18T06:59:07;40.78;;;10.52;;
63782;SDS011;49925;52.522;5.732;2023-02-18T07:01:34;39.33;;;10.35;;
63782;SDS011;49925;52.522;5.732;2023-02-18T07:04:01;30.50;;;10.02;;
63782;SDS011;49925;52.522;5.732;2023-02-18T07:06:28;35.75;;;10.07;;
63782;SDS011;49925;52.522;5.732;2023-02-18T07:08:55;30.17;;;9.32;;
63782;SDS011;49925;52.522;5.732;2023-02-18T07:11:23;30.98;;;9.57;;
63782;SDS011;49925;52.522;5.732;2023-02-18T07:13:50;30.88;;;9.50;;
63782;SDS011;49925;52.522;5.732;2023-02-18T07:16:17;29.85;;;9.05;;
63782;SDS011;49925;52.522;5.732;2023-02-18T07:18:44;28.15;;;8.52;;
63782;SDS011;49925;52.522;5.732;2023-02-18T07:21:11;33.47;;;7.93;;
63782;SDS011;49925;52.522;5.732;2023-02-18T07:23:39;24.75;;;8.73;;
63782;SDS011;49925;52.522;5.732;2023-02-18T07:26:06;25.33;;;8.88;;
63782;SDS011;49925;52.522;5.732;2023-02-18T07:28:38;29.80;;;9.23;;
63782;SDS011;49925;52.522;5.732;2023-02-18T07:31:06;25.73;;;10.00;;
63782;SDS011;49925;52.522;5.732;2023-02-18T07:33:33;29.15;;;9.15;;
63782;SDS011;49925;52.522;5.732;2023-02-18T07:36:01;25.75;;;9.77;;
63782;SDS011;49925;52.522;5.732;2023-02-18T07:38:29;30.05;;;8.68;;
63782;SDS011;49925;52.522;5.732;2023-02-18T07:40:56;28.10;;;8.77;;
63782;SDS011;49925;52.522;5.732;2023-02-18T07:43:24;32.22;;;9.43;;
63782;SDS011;49925;52.522;5.732;2023-02-18T07:45:51;32.33;;;9.52;;
63782;SDS011;49925;52.522;5.732;2023-02-18T07:48:18;29.80;;;9.32;;
63782;SDS011;49925;52.522;5.732;2023-02-18T07:50:46;18.00;;;8.32;;
63782;SDS011;49925;52.522;5.732;2023-02-18T07:53:14;28.33;;;8.93;;
63782;SDS011;49925;52.522;5.732;2023-02-18T07:55:41;27.63;;;8.98;;
63782;SDS011;49925;52.522;5.732;2023-02-18T07:58:16;29.77;;;8.77;;
63782;SDS011;49925;52.522;5.732;2023-02-18T08:00:54;27.90;;;8.02;;
63782;SDS011;49925;52.522;5.732;2023-02-18T08:03:23;22.67;;;7.97;;
63782;SDS011;49925;52.522;5.732;2023-02-18T08:05:55;22.27;;;6.97;;
63782;SDS011;49925;52.522;5.732;2023-02-18T08:08:24;18.00;;;7.22;;
63782;SDS011;49925;52.522;5.732;2023-02-18T08:10:57;20.85;;;6.80;;
63782;SDS011;49925;52.522;5.732;2023-02-18T08:13:44;25.27;;;6.20;;
63782;SDS011;49925;52.522;5.732;2023-02-18T08:16:12;30.05;;;7.20;;
63782;SDS011;49925;52.522;5.732;2023-02-18T08:18:41;33.15;;;6.70;;
63782;SDS011;49925;52.522;5.732;2023-02-18T08:21:08;25.42;;;6.53;;
63782;SDS011;49925;52.522;5.732;2023-02-18T08:23:36;24.17;;;6.07;;
63782;SDS011;49925;52.522;5.732;2023-02-18T08:26:03;28.40;;;8.02;;
63782;SDS011;49925;52.522;5.732;2023-02-18T08:28:30;27.67;;;6.15;;
63782;SDS011;49925;52.522;5.732;2023-02-18T08:30:58;32.13;;;6.78;;
63782;SDS011;49925;52.522;5.732;2023-02-18T08:33:25;32.40;;;6.57;;
63782;SDS011;49925;52.522;5.732;2023-02-18T08:35:55;20.00;;;5.25;;
63782;SDS011;49925;52.522;5.732;2023-02-18T08:38:25;39.33;;;5.53;;
63782;SDS011;49925;52.522;5.732;2023-02-18T08:41:02;26.25;;;5.40;;
63782;SDS011;49925;52.522;5.732;2023-02-18T08:43:32;32.75;;;5.20;;
63782;SDS011;49925;52.522;5.732;2023-02-18T08:45:59;19.42;;;3.70;;
63782;SDS011;49925;52.522;5.732;2023-02-18T08:48:26;20.52;;;4.50;;
63782;SDS011;49925;52.522;5.732;2023-02-18T08:50:54;27.58;;;3.92;;
63782;SDS011;49925;52.522;5.732;2023-02-18T08:53:21;23.65;;;4.47;;
63782;SDS011;49925;52.522;5.732;2023-02-18T08:55:49;29.08;;;4.85;;
63782;SDS011;49925;52.522;5.732;2023-02-18T08:58:16;23.35;;;4.47;;
63782;SDS011;49925;52.522;5.732;2023-02-18T09:00:44;26.73;;;3.88;;
63782;SDS011;49925;52.522;5.732;2023-02-18T09:03:12;25.13;;;4.00;;
63782;SDS011;49925;52.522;5.732;2023-02-18T09:05:40;26.63;;;3.80;;
63782;SDS011;49925;52.522;5.732;2023-02-18T09:08:07;22.67;;;3.03;;
63782;SDS011;49925;52.522;5.732;2023-02-18T09:10:34;34.42;;;3.85;;
63782;SDS011;49925;52.522;5.732;2023-02-18T09:13:02;22.98;;;3.83;;
63782;SDS011;49925;52.522;5.732;2023-02-18T09:15:29;26.45;;;3.10;;
63782;SDS011;49925;52.522;5.732;2023-02-18T09:17:57;29.38;;;3.75;;
63782;SDS011;49925;52.522;5.732;2023-02-18T09:20:25;19.83;;;3.17;;
63782;SDS011;49925;52.522;5.732;2023-02-18T09:22:53;27.42;;;3.53;;
63782;SDS011;49925;52.522;5.732;2023-02-18T09:25:20;19.58;;;3.42;;
63782;SDS011;49925;52.522;5.732;2023-02-18T09:27:47;36.35;;;4.30;;
63782;SDS011;49925;52.522;5.732;2023-02-18T09:30:15;23.90;;;3.38;;
63782;SDS011;49925;52.522;5.732;2023-02-18T09:32:42;27.25;;;3.53;;
63782;SDS011;49925;52.522;5.732;2023-02-18T09:35:09;34.45;;;4.25;;
63782;SDS011;49925;52.522;5.732;2023-02-18T09:37:37;29.58;;;3.20;;
63782;SDS011;49925;52.522;5.732;2023-02-18T09:40:05;35.88;;;3.80;;
63782;SDS011;49925;52.522;5.732;2023-02-18T09:42:33;27.75;;;3.22;;
63782;SDS011;49925;52.522;5.732;2023-02-18T09:45:03;35.00;;;3.67;;
63782;SDS011;49925;52.522;5.732;2023-02-18T09:50:07;25.38;;;3.25;;
63782;SDS011;49925;52.522;5.732;2023-02-18T09:53:06;24.20;;;3.78;;
63782;SDS011;49925;52.522;5.732;2023-02-18T09:55:38;27.55;;;3.00;;
63782;SDS011;49925;52.522;5.732;2023-02-18T09:58:13;34.30;;;3.35;;
63782;SDS011;49925;52.522;5.732;2023-02-18T10:00:45;27.73;;;3.15;;
63782;SDS011;49925;52.522;5.732;2023-02-18T10:03:17;21.17;;;3.05;;
63782;SDS011;49925;52.522;5.732;2023-02-18T10:08:34;17.13;;;2.88;;
63782;SDS011;49925;52.522;5.732;2023-02-18T10:11:03;33.10;;;4.03;;
63782;SDS011;49925;52.522;5.732;2023-02-18T10:13:43;20.85;;;3.03;;
63782;SDS011;49925;52.522;5.732;2023-02-18T10:16:14;31.65;;;3.30;;
63782;SDS011;49925;52.522;5.732;2023-02-18T10:18:47;40.78;;;5.43;;
63782;SDS011;49925;52.522;5.732;2023-02-18T10:21:19;30.55;;;3.80;;
63782;SDS011;49925;52.522;5.732;2023-02-18T10:24:37;34.60;;;4.07;;
63782;SDS011;49925;52.522;5.732;2023-02-18T10:26:53;26.67;;;3.22;;
63782;SDS011;49925;52.522;5.732;2023-02-18T10:29:21;32.10;;;3.75;;
63782;SDS011;49925;52.522;5.732;2023-02-18T10:31:56;32.95;;;3.40;;
63782;SDS011;49925;52.522;5.732;2023-02-18T10:40:13;23.30;;;3.00;;
63782;SDS011;49925;52.522;5.732;2023-02-18T10:43:13;33.08;;;3.65;;
63782;SDS011;49925;52.522;5.732;2023-02-18T10:46:19;41.20;;;4.07;;
63782;SDS011;49925;52.522;5.732;2023-02-18T10:49:25;32.95;;;3.50;;
63782;SDS011;49925;52.522;5.732;2023-02-18T10:52:29;25.88;;;3.42;;
63782;SDS011;49925;52.522;5.732;2023-02-18T10:57:35;29.80;;;3.63;;
63782;SDS011;49925;52.522;5.732;2023-02-18T11:00:15;27.20;;;3.75;;
63782;SDS011;49925;52.522;5.732;2023-02-18T11:02:44;24.60;;;3.25;;
63782;SDS011;49925;52.522;5.732;2023-02-18T11:05:22;33.25;;;3.97;;
63782;SDS011;49925;52.522;5.732;2023-02-18T11:07:52;18.65;;;3.65;;
63782;SDS011;49925;52.522;5.732;2023-02-18T11:10:23;20.52;;;3.22;;
63782;SDS011;49925;52.522;5.732;2023-02-18T11:13:00;34.58;;;3.60;;
63782;SDS011;49925;52.522;5.732;2023-02-18T11:15:32;27.67;;;3.95;;
63782;SDS011;49925;52.522;5.732;2023-02-18T11:18:11;24.98;;;4.00;;
63782;SDS011;49925;52.522;5.732;2023-02-18T11:21:03;22.83;;;3.97;;
63782;SDS011;49925;52.522;5.732;2023-02-18T11:23:50;27.02;;;4.70;;
63782;SDS011;49925;52.522;5.732;2023-02-18T11:26:40;28.17;;;4.20;;
63782;SDS011;49925;52.522;5.732;2023-02-18T11:29:10;24.45;;;4.38;;
63782;SDS011;49925;52.522;5.732;2023-02-18T11:41:55;26.40;;;3.80;;
63782;SDS011;49925;52.522;5.732;2023-02-18T12:41:26;28.70;;;5.20;;
63782;SDS011;49925;52.522;5.732;2023-02-18T18:58:16;31.25;;;6.60;;
